Weather reports worldwide

Advertisment
Cerezo De Arriba, Spain (8143): temperature & dewpoint: 20.09.2018 11:00:00 - 26.09.2018 11:00:00 (CEST)Cerezo De Arriba, Spain (8143): wind speed & gusts: 20.09.2018 11:00:00 - 26.09.2018 11:00:00 (CEST)Cerezo De Arriba, Spain (8143): wind direction: 20.09.2018 11:00:00 - 26.09.2018 11:00:00 (CEST)Cerezo De Arriba, Spain (8143): visibility: 20.09.2018 11:00:00 - 26.09.2018 11:00:00 (CEST)Cerezo De Arriba, Spain (8143): sunshine duration: 20.09.2018 11:00:00 - 26.09.2018 11:00:00 (CEST)Cerezo De Arriba, Spain (8143): precipitation: 20.09.2018 11:00:00 - 26.09.2018 11:00:00 (CEST)
Date & Time tt [°C] td [°C] ff [km/h] ff [kn] fx [km/h] fx [kn] dd vv [km] sd [min] rr [mm]
26.09.2018 11:00:00 13,1 11,0 43 23 63 34 S 16 5 0,0
26.09.2018 10:00:00 12,7 11,1 39 21 56 31 S 9 0 0,0
26.09.2018 09:00:00 12,5 10,5 42 23 58 32 S 10 0 0,0
26.09.2018 08:00:00 12,1 10,9 41 22 57 31 S 2,5 0 -
26.09.2018 07:00:00 12,1 10,6 41 22 60 33 S 2,4 0 0,0
26.09.2018 06:00:00 12,3 10,4 42 23 61 33 S 10 0 0,0
26.09.2018 05:00:00 12,5 10,4 44 24 60 32 S 14 0 0,0
26.09.2018 04:00:00 12,5 10,5 42 23 61 33 S 11 0 0,0
26.09.2018 03:00:00 12,7 10,0 46 25 58 31 S 16 0 0,0
26.09.2018 02:00:00 13,8 8,7 41 22 50 27 S 20 0 -
26.09.2018 01:00:00 14,7 5,8 34 18 45 25 S 20 0 0,0
26.09.2018 00:00:00 15,3 3,4 19 10 35 19 S 20 0 0,0
25.09.2018 23:00:00 14,7 3,8 16 9 24 13 S 20 0 0,0
25.09.2018 22:00:00 14,5 3,2 14 8 20 11 S 20 0 0,0
25.09.2018 21:00:00 14,1 3,6 6 3 13 7 SSE 20 0 0,0
25.09.2018 20:00:00 - - - - - - - - - -
25.09.2018 19:00:00 18,6 3,6 6 3 20 11 NNW 20 60 0,0
25.09.2018 18:00:00 19,7 3,4 7 4 20 11 NW 20 60 0,0
25.09.2018 17:00:00 19,3 3,8 8 4 22 12 N 20 60 0,0
25.09.2018 16:00:00 20,1 5,0 6 4 24 13 NW 20 60 0,0
25.09.2018 15:00:00 19,5 5,9 7 4 24 13 NNW 20 60 0,0
25.09.2018 14:00:00 19,1 4,1 5 3 22 12 W 20 60 -
25.09.2018 13:00:00 18,5 4,6 8 5 18 10 NW 20 60 0,0
25.09.2018 12:00:00 17,7 2,5 8 4 16 9 W 20 60 0,0
25.09.2018 11:00:00 17,9 -1,0 5 3 22 12 SW 17 41 0,0
25.09.2018 10:00:00 13,7 -2,7 4 2 22 12 SSW 20 0 0,0
25.09.2018 09:00:00 13,7 -0,7 10 6 23 13 SSW 20 0 0,0
25.09.2018 08:00:00 13,7 -3,6 13 7 22 12 SSW 20 0 -
25.09.2018 07:00:00 13,6 -2,7 11 6 25 14 S 20 0 0,0
25.09.2018 06:00:00 13,1 -3,3 11 6 23 12 S 20 0 0,0
25.09.2018 05:00:00 13,3 -4,5 10 5 19 10 SSW 20 0 0,0
25.09.2018 04:00:00 13,0 -6,0 10 6 17 9 S 20 0 0,0
25.09.2018 03:00:00 12,2 -4,5 10 6 21 11 S 20 0 0,0
25.09.2018 02:00:00 12,3 -3,6 11 6 17 9 SSW 20 0 -
25.09.2018 01:00:00 12,3 -4,8 9 5 15 8 SW 20 0 0,0
25.09.2018 00:00:00 13,1 2,1 9 5 15 8 WSW 20 0 0,0
24.09.2018 23:00:00 13,8 -0,3 6 3 11 6 WSW 20 0 0,0
24.09.2018 22:00:00 13,1 -1,7 3 2 9 5 W 20 0 0,0
24.09.2018 21:00:00 13,9 3,4 3 2 12 7 W 20 0 0,0
24.09.2018 20:00:00 15,0 6,8 6 3 21 12 N 20 12 -
24.09.2018 19:00:00 18,1 8,1 13 7 31 17 N 20 60 0,0
24.09.2018 18:00:00 19,6 8,9 11 6 26 14 N 20 60 0,0
24.09.2018 17:00:00 20,0 9,6 9 5 35 19 NNW 19 60 0,0
24.09.2018 16:00:00 19,7 9,6 13 7 30 16 N 20 59 0,0
24.09.2018 15:00:00 19,4 9,6 11 6 22 12 NNW 20 60 0,0
24.09.2018 14:00:00 19,6 10,0 9 5 20 11 NE 20 60 -
24.09.2018 13:00:00 18,7 7,4 9 5 18 10 N 20 60 0,0
24.09.2018 12:00:00 18,9 7,3 8 5 15 8 NE 20 60 0,0
24.09.2018 11:00:00 19,1 8,4 4 2 10 5 ESE 20 43 0,0
24.09.2018 10:00:00 14,3 6,8 3 2 10 5 SSW 20 0 0,0
24.09.2018 09:00:00 14,5 6,4 5 3 14 8 SSE 20 0 0,0
24.09.2018 08:00:00 14,3 5,9 8 4 14 8 SSE 20 0 -
24.09.2018 07:00:00 14,8 5,6 8 4 13 7 SSE 20 0 0,0
24.09.2018 06:00:00 14,1 5,5 10 5 16 9 SE 20 0 0,0
24.09.2018 05:00:00 14,7 4,1 8 4 14 8 SE 20 0 0,0
24.09.2018 04:00:00 14,8 3,0 9 5 18 10 SE 20 0 0,0
24.09.2018 03:00:00 15,4 1,1 7 4 17 9 SE 20 0 0,0
24.09.2018 02:00:00 15,6 1,3 12 6 16 8 S 20 0 -
24.09.2018 01:00:00 15,0 0,9 8 4 14 8 SE 20 0 0,0
24.09.2018 00:00:00 14,7 -0,7 8 4 16 8 S 20 0 0,0
23.09.2018 23:00:00 16,0 -1,2 6 4 12 6 SSE 20 0 0,0
23.09.2018 22:00:00 16,5 -1,2 4 2 12 6 SE 20 0 0,0
23.09.2018 21:00:00 17,4 -0,7 4 2 16 8 SW 20 0 0,0
23.09.2018 20:00:00 18,9 0,4 6 4 21 11 SW 20 15 -
23.09.2018 19:00:00 20,8 2,1 8 4 31 17 NE 20 60 0,0
23.09.2018 18:00:00 21,6 2,3 12 7 28 15 NNE 20 60 0,0
23.09.2018 17:00:00 21,9 1,5 10 5 29 16 N 20 60 0,0
23.09.2018 16:00:00 22,1 4,1 9 5 36 19 N 20 60 0,0
23.09.2018 15:00:00 21,4 3,0 12 7 31 17 NNW 20 60 0,0
23.09.2018 14:00:00 21,6 3,2 9 5 30 16 NNW 20 60 -
23.09.2018 13:00:00 21,6 2,3 4 2 18 10 NW 20 60 0,0
23.09.2018 12:00:00 21,7 2,5 4 2 14 8 WNW 20 60 0,0
23.09.2018 11:00:00 20,8 0,6 9 5 14 7 S 20 45 0,0
23.09.2018 10:00:00 14,9 0,6 9 5 12 7 SSW 20 0 0,0
23.09.2018 09:00:00 14,7 2,3 8 4 11 6 SSW 20 0 0,0
23.09.2018 08:00:00 14,6 2,1 6 3 11 6 SSW 20 0 -
23.09.2018 07:00:00 14,4 1,9 9 5 13 7 SSW 20 0 0,0
23.09.2018 06:00:00 14,9 1,5 6 3 12 7 SSW 20 0 0,0
23.09.2018 05:00:00 15,0 2,1 6 3 10 6 SSW 20 0 0,0
23.09.2018 04:00:00 14,9 3,0 4 2 11 6 SSW 20 0 0,0
23.09.2018 03:00:00 15,4 2,9 4 2 9 5 SW 20 0 0,0
23.09.2018 02:00:00 15,2 2,7 6 3 9 5 SSW 20 0 -
23.09.2018 01:00:00 15,4 2,9 5 3 9 5 SSW 20 0 0,0
23.09.2018 00:00:00 15,2 3,4 4 2 10 5 SSW 20 0 0,0
22.09.2018 23:00:00 15,1 3,8 7 4 20 11 S 20 0 0,0
22.09.2018 22:00:00 15,9 1,7 11 6 16 9 SSE 20 0 0,0
22.09.2018 21:00:00 16,0 2,5 10 5 13 7 SSE 20 0 0,0
22.09.2018 20:00:00 18,1 1,1 4 2 18 10 ESE 20 13 -
22.09.2018 19:00:00 20,5 1,3 10 5 24 13 N 20 60 0,0
22.09.2018 18:00:00 21,0 1,7 9 5 24 13 N 20 60 0,0
22.09.2018 17:00:00 21,2 2,9 11 6 27 15 N 19 60 0,0
22.09.2018 16:00:00 21,1 4,1 12 7 33 18 N 20 60 0,0
22.09.2018 15:00:00 20,8 5,6 8 4 27 15 NNW 20 60 0,0
22.09.2018 14:00:00 20,5 6,4 8 4 23 12 N 20 60 -
22.09.2018 13:00:00 20,4 6,4 8 5 19 11 W 17 60 0,0
22.09.2018 12:00:00 19,3 7,4 7 4 17 9 W 20 60 0,0
22.09.2018 11:00:00 19,3 8,3 5 3 11 6 SSE 20 46 0,0
22.09.2018 10:00:00 15,0 7,6 8 4 18 10 SSE 20 0 0,0
22.09.2018 09:00:00 14,9 7,0 12 6 19 11 S 20 0 0,0
22.09.2018 08:00:00 13,7 6,8 11 6 17 9 SSW 20 0 -
22.09.2018 07:00:00 14,1 7,0 10 5 16 9 SSW 20 0 0,0
22.09.2018 06:00:00 14,2 6,8 8 4 14 8 SSW 20 0 0,0
22.09.2018 05:00:00 13,4 6,2 10 5 16 9 SSW 20 0 0,0
22.09.2018 04:00:00 13,8 6,4 8 5 14 7 SSW 20 0 0,0
22.09.2018 03:00:00 14,0 6,5 10 5 15 8 SSW 20 0 0,0
22.09.2018 02:00:00 13,6 6,7 10 5 15 8 SSW 20 0 -
22.09.2018 01:00:00 14,2 6,5 8 4 15 8 SSW 20 0 0,0
22.09.2018 00:00:00 13,8 6,4 8 4 18 10 SSW 20 0 0,0
21.09.2018 23:00:00 14,1 6,2 9 5 13 7 SSW 20 0 0,0
21.09.2018 22:00:00 14,4 7,0 6 3 9 5 SW 20 0 0,0
21.09.2018 21:00:00 15,0 6,8 4 2 9 5 SW 20 0 0,0
21.09.2018 20:00:00 16,2 6,8 3 2 13 7 NW 20 17 -
21.09.2018 19:00:00 18,0 7,7 5 3 18 10 ENE 20 50 0,0
21.09.2018 18:00:00 18,4 7,1 9 5 32 18 N 20 60 0,0
21.09.2018 17:00:00 20,1 8,1 7 4 29 15 NNW 20 60 0,0
21.09.2018 16:00:00 19,9 7,3 13 7 32 18 NW 20 60 0,0
21.09.2018 15:00:00 19,1 7,8 13 7 30 16 NNW 20 60 0,0
21.09.2018 14:00:00 18,9 8,3 13 7 23 13 N 20 56 -
21.09.2018 13:00:00 19,0 7,1 5 3 18 10 NE 20 59 0,0
21.09.2018 12:00:00 17,8 8,4 4 2 20 11 NNE 20 56 0,0
21.09.2018 11:00:00 17,5 7,8 3 2 10 5 SSE 20 47 0,0
21.09.2018 10:00:00 13,2 6,2 8 4 15 8 SSW 20 0 0,0
21.09.2018 09:00:00 12,8 5,6 7 4 13 7 SSW 20 0 0,0
21.09.2018 08:00:00 12,5 5,5 3 1 24 13 SW 20 0 -
21.09.2018 07:00:00 13,0 6,5 9 5 21 11 SSE 20 0 0,0
21.09.2018 06:00:00 13,6 5,8 9 5 19 11 SW 20 0 0,0
21.09.2018 05:00:00 13,5 5,6 8 4 15 8 SSW 20 0 0,0
21.09.2018 04:00:00 13,5 5,1 5 3 16 9 SSW 20 0 0,0
21.09.2018 03:00:00 14,4 5,5 6 4 16 9 S 20 0 0,0
21.09.2018 02:00:00 14,7 8,0 11 6 24 13 SSW 20 0 -
21.09.2018 01:00:00 16,1 7,8 8 4 26 14 S 20 0 0,0
21.09.2018 00:00:00 16,4 7,6 11 6 25 13 SSE 20 0 0,0
20.09.2018 23:00:00 16,4 7,0 13 7 29 16 S 20 0 0,0
20.09.2018 22:00:00 16,6 7,0 10 5 25 14 S 20 0 0,0
20.09.2018 21:00:00 17,3 6,8 14 8 31 17 S 20 0 0,0
20.09.2018 20:00:00 17,6 6,1 13 7 27 15 S 20 0 -
20.09.2018 19:00:00 16,5 6,1 8 4 24 13 SE 20 0 0,0
20.09.2018 18:00:00 17,3 7,6 7 4 43 23 ESE 20 16 0,0
20.09.2018 17:00:00 19,7 8,7 21 11 35 19 S 20 30 0,0
20.09.2018 16:00:00 19,3 8,0 15 8 38 21 S 20 29 0,0
20.09.2018 15:00:00 20,9 8,1 7 4 27 15 S 20 30 0,0
20.09.2018 14:00:00 19,2 8,8 13 7 34 19 NW 20 39 -
20.09.2018 13:00:00 21,1 7,7 6 3 29 16 ESE 20 56 0,0
20.09.2018 12:00:00 20,6 8,5 5 3 16 9 WNW 16 60 0,0
20.09.2018 11:00:00 19,4 8,1 5 3 20 11 SE 20 49 0,0

tt = temperature
td = dewpoint
ff = wind speed
fx = gusts
dd = wind direction
vv = visibility
sd = sunshine duration
rr = precipitation

Next stations